sensor_id;sensor_type;location;lat;lon;timestamp;pressure;altitude;pressure_sealevel;temperature;humidity
45713;BME280;44920;52.792;18.264;2022-12-18T00:01:58;102101.58;;;-4.09;100.00
45713;BME280;44920;52.792;18.264;2022-12-18T00:04:26;102106.17;;;-4.13;100.00
45713;BME280;44920;52.792;18.264;2022-12-18T00:06:53;102107.67;;;-4.17;100.00
45713;BME280;44920;52.792;18.264;2022-12-18T00:09:20;102119.39;;;-4.22;100.00
45713;BME280;44920;52.792;18.264;2022-12-18T00:11:47;102116.35;;;-4.28;100.00
45713;BME280;44920;52.792;18.264;2022-12-18T00:14:14;102116.41;;;-4.33;100.00
45713;BME280;44920;52.792;18.264;2022-12-18T00:16:43;102117.52;;;-4.37;100.00
45713;BME280;44920;52.792;18.264;2022-12-18T00:19:10;102125.33;;;-4.37;100.00
45713;BME280;44920;52.792;18.264;2022-12-18T00:21:41;102128.12;;;-4.38;100.00
45713;BME280;44920;52.792;18.264;2022-12-18T00:24:08;102130.66;;;-4.38;100.00
45713;BME280;44920;52.792;18.264;2022-12-18T00:26:35;102126.54;;;-4.39;100.00
45713;BME280;44920;52.792;18.264;2022-12-18T00:29:04;102124.20;;;-4.40;100.00
45713;BME280;44920;52.792;18.264;2022-12-18T00:31:31;102124.18;;;-4.42;100.00
45713;BME280;44920;52.792;18.264;2022-12-18T00:33:58;102122.42;;;-4.46;100.00
45713;BME280;44920;52.792;18.264;2022-12-18T00:36:26;102119.16;;;-4.50;100.00
45713;BME280;44920;52.792;18.264;2022-12-18T00:38:55;102123.12;;;-4.54;100.00
45713;BME280;44920;52.792;18.264;2022-12-18T00:41:22;102128.08;;;-4.56;100.00
45713;BME280;44920;52.792;18.264;2022-12-18T00:44:11;102130.21;;;-4.57;100.00
45713;BME280;44920;52.792;18.264;2022-12-18T00:46:38;102139.92;;;-4.56;100.00
45713;BME280;44920;52.792;18.264;2022-12-18T00:49:05;102149.93;;;-4.56;100.00
45713;BME280;44920;52.792;18.264;2022-12-18T00:51:32;102156.96;;;-4.52;100.00
45713;BME280;44920;52.792;18.264;2022-12-18T00:53:59;102170.23;;;-4.48;100.00
45713;BME280;44920;52.792;18.264;2022-12-18T00:56:26;102163.02;;;-4.46;100.00
45713;BME280;44920;52.792;18.264;2022-12-18T00:58:53;102167.06;;;-4.44;100.00
45713;BME280;44920;52.792;18.264;2022-12-18T01:01:20;102176.94;;;-4.42;100.00
45713;BME280;44920;52.792;18.264;2022-12-18T01:03:47;102177.42;;;-4.42;100.00
45713;BME280;44920;52.792;18.264;2022-12-18T01:06:14;102176.48;;;-4.43;100.00
45713;BME280;44920;52.792;18.264;2022-12-18T01:08:41;102174.16;;;-4.45;100.00
45713;BME280;44920;52.792;18.264;2022-12-18T01:11:09;102177.13;;;-4.46;100.00
45713;BME280;44920;52.792;18.264;2022-12-18T01:13:37;102190.17;;;-4.45;100.00
45713;BME280;44920;52.792;18.264;2022-12-18T01:16:04;102188.83;;;-4.43;100.00
45713;BME280;44920;52.792;18.264;2022-12-18T01:18:31;102178.96;;;-4.40;100.00
45713;BME280;44920;52.792;18.264;2022-12-18T01:20:58;102181.75;;;-4.38;100.00
45713;BME280;44920;52.792;18.264;2022-12-18T01:23:28;102187.86;;;-4.35;100.00
45713;BME280;44920;52.792;18.264;2022-12-18T01:25:55;102201.94;;;-4.31;100.00
45713;BME280;44920;52.792;18.264;2022-12-18T01:28:22;102191.59;;;-4.29;100.00
45713;BME280;44920;52.792;18.264;2022-12-18T01:30:49;102198.76;;;-4.27;100.00
45713;BME280;44920;52.792;18.264;2022-12-18T01:33:15;102193.50;;;-4.25;100.00
45713;BME280;44920;52.792;18.264;2022-12-18T01:35:43;102198.50;;;-4.25;100.00
45713;BME280;44920;52.792;18.264;2022-12-18T01:38:09;102199.13;;;-4.26;100.00
45713;BME280;44920;52.792;18.264;2022-12-18T01:40:36;102209.94;;;-4.27;100.00
45713;BME280;44920;52.792;18.264;2022-12-18T01:43:03;102208.98;;;-4.27;100.00
45713;BME280;44920;52.792;18.264;2022-12-18T01:45:31;102209.98;;;-4.30;100.00
45713;BME280;44920;52.792;18.264;2022-12-18T01:48:02;102216.34;;;-4.30;100.00
45713;BME280;44920;52.792;18.264;2022-12-18T01:50:37;102208.61;;;-4.29;100.00
45713;BME280;44920;52.792;18.264;2022-12-18T01:55:40;102215.55;;;-4.22;100.00
45713;BME280;44920;52.792;18.264;2022-12-18T01:58:08;102209.13;;;-4.17;100.00
45713;BME280;44920;52.792;18.264;2022-12-18T02:00:35;102219.45;;;-4.14;100.00
45713;BME280;44920;52.792;18.264;2022-12-18T02:03:02;102222.70;;;-4.10;100.00
45713;BME280;44920;52.792;18.264;2022-12-18T02:05:34;102227.70;;;-4.08;100.00
45713;BME280;44920;52.792;18.264;2022-12-18T02:08:08;102226.06;;;-4.07;100.00
45713;BME280;44920;52.792;18.264;2022-12-18T02:10:45;102218.23;;;-4.08;100.00
45713;BME280;44920;52.792;18.264;2022-12-18T02:13:23;102214.11;;;-4.09;100.00
45713;BME280;44920;52.792;18.264;2022-12-18T02:15:59;102217.76;;;-4.12;100.00
45713;BME280;44920;52.792;18.264;2022-12-18T02:18:31;102218.73;;;-4.12;100.00
45713;BME280;44920;52.792;18.264;2022-12-18T02:24:28;102224.23;;;-4.07;100.00
45713;BME280;44920;52.792;18.264;2022-12-18T02:26:43;102216.38;;;-4.05;100.00
45713;BME280;44920;52.792;18.264;2022-12-18T02:29:13;102225.33;;;-4.03;100.00
45713;BME280;44920;52.792;18.264;2022-12-18T02:31:45;102235.14;;;-4.02;100.00
45713;BME280;44920;52.792;18.264;2022-12-18T02:34:14;102232.33;;;-4.01;100.00
45713;BME280;44920;52.792;18.264;2022-12-18T02:36:43;102233.27;;;-4.03;100.00
45713;BME280;44920;52.792;18.264;2022-12-18T02:39:12;102234.83;;;-4.06;100.00
45713;BME280;44920;52.792;18.264;2022-12-18T02:41:40;102238.30;;;-4.09;100.00
45713;BME280;44920;52.792;18.264;2022-12-18T02:44:08;102242.85;;;-4.13;100.00
45713;BME280;44920;52.792;18.264;2022-12-18T02:46:36;102248.60;;;-4.16;100.00
45713;BME280;44920;52.792;18.264;2022-12-18T02:51:53;102263.23;;;-4.22;100.00
45713;BME280;44920;52.792;18.264;2022-12-18T02:54:36;102266.84;;;-4.20;100.00
45713;BME280;44920;52.792;18.264;2022-12-18T02:57:10;102267.84;;;-4.20;100.00
45713;BME280;44920;52.792;18.264;2022-12-18T02:59:41;102267.16;;;-4.17;100.00
45713;BME280;44920;52.792;18.264;2022-12-18T03:04:39;102273.30;;;-4.12;100.00
45713;BME280;44920;52.792;18.264;2022-12-18T03:07:11;102274.94;;;-4.10;100.00
45713;BME280;44920;52.792;18.264;2022-12-18T03:09:43;102287.54;;;-4.09;100.00
45713;BME280;44920;52.792;18.264;2022-12-18T03:12:30;102284.28;;;-4.08;100.00
45713;BME280;44920;52.792;18.264;2022-12-18T03:17:45;102271.56;;;-4.10;100.00
45713;BME280;44920;52.792;18.264;2022-12-18T03:20:14;102275.04;;;-4.12;100.00
45713;BME280;44920;52.792;18.264;2022-12-18T03:22:43;102283.27;;;-4.12;100.00
45713;BME280;44920;52.792;18.264;2022-12-18T03:25:12;102295.60;;;-4.11;100.00
45713;BME280;44920;52.792;18.264;2022-12-18T03:27:41;102302.56;;;-4.09;100.00
45713;BME280;44920;52.792;18.264;2022-12-18T03:30:11;102295.34;;;-4.08;100.00
45713;BME280;44920;52.792;18.264;2022-12-18T03:32:41;102289.16;;;-4.08;100.00
45713;BME280;44920;52.792;18.264;2022-12-18T03:35:10;102304.33;;;-4.06;100.00
45713;BME280;44920;52.792;18.264;2022-12-18T03:37:39;102308.23;;;-4.02;100.00
45713;BME280;44920;52.792;18.264;2022-12-18T03:40:06;102314.61;;;-4.00;100.00
45713;BME280;44920;52.792;18.264;2022-12-18T03:42:49;102313.08;;;-3.99;100.00
45713;BME280;44920;52.792;18.264;2022-12-18T03:45:36;102315.13;;;-4.01;100.00
45713;BME280;44920;52.792;18.264;2022-12-18T03:48:09;102324.73;;;-4.04;100.00
45713;BME280;44920;52.792;18.264;2022-12-18T03:55:41;102321.09;;;-4.14;100.00
45713;BME280;44920;52.792;18.264;2022-12-18T03:58:09;102329.99;;;-4.18;100.00
45713;BME280;44920;52.792;18.264;2022-12-18T04:00:37;102331.05;;;-4.22;100.00
45713;BME280;44920;52.792;18.264;2022-12-18T04:03:05;102334.14;;;-4.24;100.00
45713;BME280;44920;52.792;18.264;2022-12-18T04:05:35;102332.86;;;-4.25;100.00
45713;BME280;44920;52.792;18.264;2022-12-18T04:08:03;102334.23;;;-4.26;100.00
45713;BME280;44920;52.792;18.264;2022-12-18T04:10:32;102330.73;;;-4.26;100.00
45713;BME280;44920;52.792;18.264;2022-12-18T04:12:59;102329.77;;;-4.24;100.00
45713;BME280;44920;52.792;18.264;2022-12-18T04:15:25;102334.98;;;-4.21;100.00
45713;BME280;44920;52.792;18.264;2022-12-18T04:17:52;102332.08;;;-4.19;100.00
45713;BME280;44920;52.792;18.264;2022-12-18T04:20:19;102338.13;;;-4.16;100.00
45713;BME280;44920;52.792;18.264;2022-12-18T04:22:46;102346.82;;;-4.13;100.00
45713;BME280;44920;52.792;18.264;2022-12-18T04:25:13;102350.05;;;-4.09;100.00
45713;BME280;44920;52.792;18.264;2022-12-18T04:27:40;102350.52;;;-4.05;100.00
45713;BME280;44920;52.792;18.264;2022-12-18T04:30:07;102348.81;;;-4.05;100.00
45713;BME280;44920;52.792;18.264;2022-12-18T04:32:34;102355.59;;;-4.07;100.00
45713;BME280;44920;52.792;18.264;2022-12-18T04:35:01;102356.29;;;-4.12;100.00
45713;BME280;44920;52.792;18.264;2022-12-18T04:37:30;102361.36;;;-4.17;100.00
45713;BME280;44920;52.792;18.264;2022-12-18T04:39:57;102362.60;;;-4.25;100.00
45713;BME280;44920;52.792;18.264;2022-12-18T04:42:24;102362.27;;;-4.31;100.00
45713;BME280;44920;52.792;18.264;2022-12-18T04:44:51;102365.54;;;-4.35;100.00
45713;BME280;44920;52.792;18.264;2022-12-18T04:47:18;102367.17;;;-4.40;100.00
45713;BME280;44920;52.792;18.264;2022-12-18T04:49:44;102372.55;;;-4.43;100.00
45713;BME280;44920;52.792;18.264;2022-12-18T04:52:11;102382.44;;;-4.42;100.00
45713;BME280;44920;52.792;18.264;2022-12-18T04:54:38;102380.19;;;-4.42;100.00
45713;BME280;44920;52.792;18.264;2022-12-18T04:57:05;102381.06;;;-4.40;100.00
45713;BME280;44920;52.792;18.264;2022-12-18T04:59:32;102383.10;;;-4.38;100.00
45713;BME280;44920;52.792;18.264;2022-12-18T05:01:58;102384.55;;;-4.38;100.00
45713;BME280;44920;52.792;18.264;2022-12-18T05:04:25;102387.86;;;-4.37;100.00
45713;BME280;44920;52.792;18.264;2022-12-18T05:06:52;102390.69;;;-4.37;100.00
45713;BME280;44920;52.792;18.264;2022-12-18T05:09:19;102397.45;;;-4.36;100.00
45713;BME280;44920;52.792;18.264;2022-12-18T05:11:46;102395.33;;;-4.36;100.00
45713;BME280;44920;52.792;18.264;2022-12-18T05:14:13;102391.36;;;-4.39;100.00
45713;BME280;44920;52.792;18.264;2022-12-18T05:16:40;102391.49;;;-4.44;100.00
45713;BME280;44920;52.792;18.264;2022-12-18T05:19:07;102391.15;;;-4.50;100.00
45713;BME280;44920;52.792;18.264;2022-12-18T05:21:33;102393.71;;;-4.53;100.00
45713;BME280;44920;52.792;18.264;2022-12-18T05:24:00;102396.71;;;-4.54;100.00
45713;BME280;44920;52.792;18.264;2022-12-18T05:26:27;102404.30;;;-4.54;100.00
45713;BME280;44920;52.792;18.264;2022-12-18T05:28:57;102408.27;;;-4.54;100.00
45713;BME280;44920;52.792;18.264;2022-12-18T05:31:24;102413.05;;;-4.55;100.00
45713;BME280;44920;52.792;18.264;2022-12-18T05:33:50;102418.48;;;-4.53;100.00
45713;BME280;44920;52.792;18.264;2022-12-18T05:36:17;102419.17;;;-4.53;100.00
45713;BME280;44920;52.792;18.264;2022-12-18T05:38:44;102424.36;;;-4.55;100.00
45713;BME280;44920;52.792;18.264;2022-12-18T05:41:11;102430.77;;;-4.59;100.00
45713;BME280;44920;52.792;18.264;2022-12-18T05:43:38;102443.24;;;-4.63;100.00
45713;BME280;44920;52.792;18.264;2022-12-18T05:46:12;102446.33;;;-4.66;100.00
45713;BME280;44920;52.792;18.264;2022-12-18T05:48:40;102451.30;;;-4.66;100.00
45713;BME280;44920;52.792;18.264;2022-12-18T05:51:11;102452.02;;;-4.70;100.00
45713;BME280;44920;52.792;18.264;2022-12-18T05:53:39;102453.45;;;-4.73;100.00
45713;BME280;44920;52.792;18.264;2022-12-18T05:56:07;102456.20;;;-4.76;100.00
45713;BME280;44920;52.792;18.264;2022-12-18T05:58:35;102457.70;;;-4.78;100.00
45713;BME280;44920;52.792;18.264;2022-12-18T06:01:06;102463.16;;;-4.77;100.00
45713;BME280;44920;52.792;18.264;2022-12-18T06:03:36;102469.23;;;-4.74;100.00
45713;BME280;44920;52.792;18.264;2022-12-18T06:06:03;102466.53;;;-4.73;100.00
45713;BME280;44920;52.792;18.264;2022-12-18T06:08:30;102475.99;;;-4.75;100.00
45713;BME280;44920;52.792;18.264;2022-12-18T06:10:56;102479.23;;;-4.75;100.00
45713;BME280;44920;52.792;18.264;2022-12-18T06:13:23;102477.23;;;-4.76;100.00
45713;BME280;44920;52.792;18.264;2022-12-18T06:15:50;102482.61;;;-4.78;100.00
45713;BME280;44920;52.792;18.264;2022-12-18T06:18:17;102486.17;;;-4.84;100.00
45713;BME280;44920;52.792;18.264;2022-12-18T06:20:44;102485.77;;;-4.90;100.00
45713;BME280;44920;52.792;18.264;2022-12-18T06:23:10;102486.28;;;-4.97;100.00
45713;BME280;44920;52.792;18.264;2022-12-18T06:25:38;102490.80;;;-5.05;100.00
45713;BME280;44920;52.792;18.264;2022-12-18T06:28:09;102493.90;;;-5.10;100.00
45713;BME280;44920;52.792;18.264;2022-12-18T06:30:35;102500.07;;;-5.18;100.00
45713;BME280;44920;52.792;18.264;2022-12-18T06:33:03;102500.61;;;-5.22;100.00
45713;BME280;44920;52.792;18.264;2022-12-18T06:35:31;102509.05;;;-5.25;100.00
45713;BME280;44920;52.792;18.264;2022-12-18T06:37:58;102514.02;;;-5.24;100.00
45713;BME280;44920;52.792;18.264;2022-12-18T06:40:25;102519.67;;;-5.23;100.00
45713;BME280;44920;52.792;18.264;2022-12-18T06:42:52;102520.52;;;-5.23;100.00
45713;BME280;44920;52.792;18.264;2022-12-18T06:45:19;102522.46;;;-5.24;100.00
45713;BME280;44920;52.792;18.264;2022-12-18T06:47:46;102528.66;;;-5.28;100.00
45713;BME280;44920;52.792;18.264;2022-12-18T06:53:11;102539.32;;;-5.29;100.00
45713;BME280;44920;52.792;18.264;2022-12-18T06:55:38;102537.97;;;-5.32;100.00
45713;BME280;44920;52.792;18.264;2022-12-18T06:58:05;102544.71;;;-5.37;100.00
45713;BME280;44920;52.792;18.264;2022-12-18T07:00:41;102543.04;;;-5.42;100.00
45713;BME280;44920;52.792;18.264;2022-12-18T07:03:08;102548.30;;;-5.46;100.00
45713;BME280;44920;52.792;18.264;2022-12-18T07:05:39;102556.23;;;-5.50;100.00
45713;BME280;44920;52.792;18.264;2022-12-18T07:08:08;102560.55;;;-5.54;100.00
45713;BME280;44920;52.792;18.264;2022-12-18T07:10:43;102564.02;;;-5.55;100.00
45713;BME280;44920;52.792;18.264;2022-12-18T07:13:10;102565.77;;;-5.56;100.00
45713;BME280;44920;52.792;18.264;2022-12-18T07:16:02;102570.29;;;-5.54;100.00
45713;BME280;44920;52.792;18.264;2022-12-18T07:18:45;102573.83;;;-5.55;100.00
45713;BME280;44920;52.792;18.264;2022-12-18T07:21:18;102585.64;;;-5.49;100.00
45713;BME280;44920;52.792;18.264;2022-12-18T07:23:52;102589.28;;;-5.53;100.00
45713;BME280;44920;52.792;18.264;2022-12-18T07:26:31;102595.73;;;-5.56;100.00
45713;BME280;44920;52.792;18.264;2022-12-18T07:28:58;102589.00;;;-5.61;100.00
45713;BME280;44920;52.792;18.264;2022-12-18T07:31:25;102588.61;;;-5.67;100.00
45713;BME280;44920;52.792;18.264;2022-12-18T07:33:59;102592.10;;;-5.68;100.00
45713;BME280;44920;52.792;18.264;2022-12-18T07:36:26;102600.67;;;-5.60;100.00
45713;BME280;44920;52.792;18.264;2022-12-18T07:38:53;102588.61;;;-5.65;100.00
45713;BME280;44920;52.792;18.264;2022-12-18T07:41:36;102587.33;;;-5.65;100.00
45713;BME280;44920;52.792;18.264;2022-12-18T07:44:12;102592.40;;;-5.58;100.00
45713;BME280;44920;52.792;18.264;2022-12-18T07:46:53;102592.46;;;-5.62;100.00
45713;BME280;44920;52.792;18.264;2022-12-18T07:49:21;102598.13;;;-5.67;100.00
45713;BME280;44920;52.792;18.264;2022-12-18T07:51:55;102594.34;;;-5.73;100.00
45713;BME280;44920;52.792;18.264;2022-12-18T07:54:31;102606.23;;;-5.69;100.00
45713;BME280;44920;52.792;18.264;2022-12-18T07:57:07;102611.55;;;-5.69;100.00
45713;BME280;44920;52.792;18.264;2022-12-18T07:59:49;102616.48;;;-5.80;100.00
45713;BME280;44920;52.792;18.264;2022-12-18T08:02:19;102619.02;;;-5.84;100.00
45713;BME280;44920;52.792;18.264;2022-12-18T08:04:52;102627.07;;;-5.86;100.00
45713;BME280;44920;52.792;18.264;2022-12-18T08:07:25;102630.58;;;-5.97;100.00
45713;BME280;44920;52.792;18.264;2022-12-18T08:09:52;102631.42;;;-5.95;100.00
45713;BME280;44920;52.792;18.264;2022-12-18T08:12:31;102627.98;;;-5.90;100.00
45713;BME280;44920;52.792;18.264;2022-12-18T08:14:58;102622.90;;;-5.90;100.00
45713;BME280;44920;52.792;18.264;2022-12-18T08:17:34;102618.70;;;-5.98;100.00
45713;BME280;44920;52.792;18.264;2022-12-18T08:20:01;102629.96;;;-6.00;100.00
45713;BME280;44920;52.792;18.264;2022-12-18T08:22:39;102634.61;;;-5.99;100.00
45713;BME280;44920;52.792;18.264;2022-12-18T08:25:09;102637.13;;;-6.00;100.00
45713;BME280;44920;52.792;18.264;2022-12-18T08:27:40;102649.89;;;-6.05;100.00
45713;BME280;44920;52.792;18.264;2022-12-18T08:30:10;102648.47;;;-6.14;100.00
45713;BME280;44920;52.792;18.264;2022-12-18T08:32:51;102656.06;;;-6.11;100.00
45713;BME280;44920;52.792;18.264;2022-12-18T08:35:20;102656.45;;;-6.06;100.00
45713;BME280;44920;52.792;18.264;2022-12-18T08:37:53;102664.45;;;-5.96;100.00
45713;BME280;44920;52.792;18.264;2022-12-18T08:40:20;102671.60;;;-6.02;100.00
45713;BME280;44920;52.792;18.264;2022-12-18T08:42:47;102675.72;;;-6.13;100.00
45713;BME280;44920;52.792;18.264;2022-12-18T08:45:35;102670.07;;;-6.17;100.00
45713;BME280;44920;52.792;18.264;2022-12-18T08:48:02;102686.84;;;-6.11;100.00
45713;BME280;44920;52.792;18.264;2022-12-18T08:50:28;102687.44;;;-6.14;100.00
45713;BME280;44920;52.792;18.264;2022-12-18T08:52:57;102695.24;;;-6.11;100.00
45713;BME280;44920;52.792;18.264;2022-12-18T08:55:24;102695.58;;;-6.11;100.00
45713;BME280;44920;52.792;18.264;2022-12-18T08:57:51;102694.91;;;-6.12;100.00
45713;BME280;44920;52.792;18.264;2022-12-18T09:00:18;102698.64;;;-6.13;100.00
45713;BME280;44920;52.792;18.264;2022-12-18T09:02:45;102696.89;;;-6.14;100.00
45713;BME280;44920;52.792;18.264;2022-12-18T09:05:12;102700.73;;;-6.04;100.00
45713;BME280;44920;52.792;18.264;2022-12-18T09:07:38;102693.45;;;-6.01;100.00
45713;BME280;44920;52.792;18.264;2022-12-18T09:10:06;102688.15;;;-5.97;100.00
45713;BME280;44920;52.792;18.264;2022-12-18T09:12:36;102688.70;;;-5.97;100.00
45713;BME280;44920;52.792;18.264;2022-12-18T09:15:03;102684.04;;;-5.98;100.00
45713;BME280;44920;52.792;18.264;2022-12-18T09:17:33;102684.65;;;-5.93;100.00
45713;BME280;44920;52.792;18.264;2022-12-18T09:20:03;102685.20;;;-5.97;100.00
45713;BME280;44920;52.792;18.264;2022-12-18T09:22:30;102685.29;;;-5.90;100.00
45713;BME280;44920;52.792;18.264;2022-12-18T09:25:00;102684.71;;;-5.83;100.00
45713;BME280;44920;52.792;18.264;2022-12-18T09:27:40;102689.98;;;-5.77;100.00
45713;BME280;44920;52.792;18.264;2022-12-18T09:30:07;102693.34;;;-5.77;100.00
45713;BME280;44920;52.792;18.264;2022-12-18T09:32:34;102685.73;;;-5.88;100.00
45713;BME280;44920;52.792;18.264;2022-12-18T09:35:01;102690.16;;;-5.94;100.00
45713;BME280;44920;52.792;18.264;2022-12-18T09:37:28;102679.92;;;-6.06;99.98
45713;BME280;44920;52.792;18.264;2022-12-18T09:39:55;102680.59;;;-6.13;100.00
45713;BME280;44920;52.792;18.264;2022-12-18T09:42:36;102672.23;;;-6.22;100.00
45713;BME280;44920;52.792;18.264;2022-12-18T09:45:12;102674.97;;;-6.21;100.00
45713;BME280;44920;52.792;18.264;2022-12-18T09:47:42;102669.75;;;-6.24;100.00
45713;BME280;44920;52.792;18.264;2022-12-18T09:50:25;102665.36;;;-6.23;100.00
45713;BME280;44920;52.792;18.264;2022-12-18T09:53:15;102657.27;;;-6.16;100.00
45713;BME280;44920;52.792;18.264;2022-12-18T09:55:45;102653.85;;;-6.05;100.00
45713;BME280;44920;52.792;18.264;2022-12-18T09:58:39;102647.52;;;-6.08;100.00
45713;BME280;44920;52.792;18.264;2022-12-18T10:04:08;102666.61;;;-6.01;99.97
45713;BME280;44920;52.792;18.264;2022-12-18T10:06:44;102669.77;;;-6.06;99.98
45713;BME280;44920;52.792;18.264;2022-12-18T10:12:14;102678.20;;;-6.14;99.82
45713;BME280;44920;52.792;18.264;2022-12-18T10:14:54;102674.74;;;-6.23;99.97
45713;BME280;44920;52.792;18.264;2022-12-18T10:20:16;102662.80;;;-6.38;99.95
45713;BME280;44920;52.792;18.264;2022-12-18T10:23:00;102663.33;;;-6.37;100.00
45713;BME280;44920;52.792;18.264;2022-12-18T10:25:34;102667.99;;;-6.35;100.00
